createdAt,value
2022-08-12T00:11:15.017Z,19.3
2022-08-12T00:21:17.421Z,18.6
2022-08-12T00:31:19.743Z,18.4
2022-08-12T00:41:21.859Z,18.2
2022-08-12T00:51:24.089Z,18
2022-08-12T01:01:26.433Z,18.1
2022-08-12T01:11:28.183Z,18.3
2022-08-12T01:21:30.490Z,17.9
2022-08-12T01:31:32.791Z,18.2
2022-08-12T01:41:34.751Z,18.1
2022-08-12T01:52:04.605Z,18.1
2022-08-12T02:01:39.139Z,17.8
2022-08-12T02:11:40.932Z,17.5
2022-08-12T02:21:43.255Z,17.3
2022-08-12T02:31:45.066Z,16.9
2022-08-12T02:41:47.645Z,17
2022-08-12T02:51:49.493Z,16.8
2022-08-12T03:01:51.382Z,16.8
2022-08-12T03:11:53.896Z,16.6
2022-08-12T03:22:09.047Z,16.6
2022-08-12T03:31:58.414Z,16.2
2022-08-12T03:42:00.937Z,15.8
2022-08-12T03:52:03.164Z,15.9
2022-08-12T04:02:05.553Z,15.9
2022-08-12T04:12:07.918Z,15.6
2022-08-12T04:22:10.198Z,15.5
2022-08-12T04:32:12.131Z,15.3
2022-08-12T04:42:14.277Z,15.6
2022-08-12T04:52:15.975Z,15.6
2022-08-12T05:02:20.668Z,15.4
2022-08-12T05:22:29.651Z,16.4
2022-08-12T05:32:32.175Z,17.8
2022-08-12T05:42:34.603Z,18.1
2022-08-12T05:52:36.053Z,18.4
2022-08-12T06:02:37.847Z,18.9
2022-08-12T06:12:40.361Z,19.3
2022-08-12T06:22:42.546Z,20.4
2022-08-12T06:32:47.642Z,20.8
2022-08-12T06:42:47.326Z,21.6
2022-08-12T07:02:51.243Z,23
2022-08-12T07:12:52.880Z,24.6
2022-08-12T07:22:54.943Z,25.7
2022-08-12T07:33:01.325Z,26.4
2022-08-12T07:42:59.439Z,26.7
2022-08-12T07:53:02.078Z,26
2022-08-12T08:03:04.173Z,27
2022-08-12T08:13:06.441Z,27.7
2022-08-12T08:23:08.644Z,27.5
2022-08-12T08:33:11.258Z,27.2
2022-08-12T08:43:13.374Z,28.4
2022-08-12T08:53:15.347Z,28.3
2022-08-12T09:04:21.789Z,28.5
2022-08-12T09:23:56.852Z,28.5
2022-08-12T09:34:24.843Z,30.3
2022-08-12T09:43:26.151Z,29.3
2022-08-12T10:23:39.639Z,29.1
2022-08-12T10:33:43.728Z,29.5
2022-08-12T10:43:54.743Z,30.3
2022-08-12T10:53:44.693Z,30.8
2022-08-12T11:04:21.611Z,30.4
2022-08-12T11:13:46.366Z,30.6
2022-08-12T11:23:46.230Z,29.6
2022-08-12T11:34:04.011Z,30.8
2022-08-12T11:43:58.467Z,30.2
2022-08-12T11:53:56.658Z,30.8
2022-08-12T12:03:54.744Z,30.7
2022-08-12T12:14:06.989Z,30.2
2022-08-12T12:23:58.356Z,30.5
2022-08-12T12:34:00.799Z,30.1
2022-08-12T12:44:04.301Z,30.6
2022-08-12T12:54:07.314Z,30.4
2022-08-12T13:04:07.472Z,31.2
2022-08-12T13:14:12.509Z,30.4
2022-08-12T13:24:12.261Z,30.3
2022-08-12T13:34:28.396Z,30.2
2022-08-12T13:44:16.456Z,30.3
2022-08-12T13:54:18.669Z,30.2
2022-08-12T14:04:21.295Z,30.3
2022-08-12T14:14:22.988Z,30.3
2022-08-12T14:24:27.126Z,30.2
2022-08-12T14:34:28.296Z,30.2
2022-08-12T14:44:58.430Z,30.5
2022-08-12T15:04:32.872Z,30.4
2022-08-12T15:14:35.422Z,30.4
2022-08-12T15:24:36.773Z,30.2
2022-08-12T15:34:39.127Z,30.1
2022-08-12T15:44:42.460Z,30.4
2022-08-12T16:24:52.014Z,30
2022-08-12T16:44:54.268Z,29.8
2022-08-12T17:04:58.906Z,29.7
2022-08-12T17:15:01.179Z,29.6
2022-08-12T17:25:03.163Z,29.5
2022-08-12T17:35:04.912Z,29.4
2022-08-12T17:45:17.679Z,29.2
2022-08-12T17:55:16.638Z,29
2022-08-12T18:05:12.127Z,28.8
2022-08-12T18:35:18.404Z,28
2022-08-12T18:55:22.690Z,26.9
2022-08-12T19:05:24.453Z,26.1
2022-08-12T19:15:26.639Z,25.6
2022-08-12T19:25:55.242Z,25.2
2022-08-12T19:36:03.638Z,24.9
2022-08-12T19:45:42.472Z,24.4
2022-08-12T19:55:38.891Z,24.2
2022-08-12T20:06:04.293Z,23.9
2022-08-12T20:15:43.219Z,23.5
2022-08-12T20:25:52.126Z,23.4
2022-08-12T20:36:07.150Z,23.3
2022-08-12T20:45:50.858Z,23
2022-08-12T20:55:56.742Z,22.4
2022-08-12T21:15:53.572Z,22
2022-08-12T21:35:56.762Z,21.4
2022-08-12T21:46:00.324Z,21.2
2022-08-12T21:56:01.404Z,21.1
2022-08-12T22:06:03.487Z,20.6
2022-08-12T22:16:06.026Z,20.5
2022-08-12T22:26:08.040Z,20.2
2022-08-12T22:36:10.052Z,19.6
2022-08-12T22:46:11.820Z,19.4
2022-08-12T22:56:14.356Z,19.6
2022-08-12T23:06:15.981Z,19.5
2022-08-12T23:16:18.356Z,19.2
2022-08-12T23:26:19.709Z,19.2
2022-08-12T23:36:31.971Z,18.9
2022-08-12T23:46:25.678Z,18.8
